Time;durP1;ratioP1;P1;durP2;ratioP2;P2;SDS_P1;SDS_P2;PMS_P1;PMS_P2;Temp;Humidity;BMP_temperature;BMP_pressure;BME280_temperature;BME280_humidity;BME280_pressure;Samples;Min_cycle;Max_cycle;Signal;HPM_P1;HPM_P2
2022/06/30 00:01:01;;;;;;;8.90;8.30;;;18.80;99.90;;;19.66;89.43;97603.66;5221181;28;20728;-60
2022/06/30 00:03:34;;;;;;;9.23;8.52;;;18.80;99.90;;;19.71;89.75;97612.38;5217956;28;20569;-58
2022/06/30 00:06:09;;;;;;;9.10;8.40;;;18.80;99.90;;;19.71;89.77;97604.59;5217029;28;20247;-58
2022/06/30 00:08:42;;;;;;;9.38;8.68;;;18.90;99.90;;;19.71;89.96;97614.09;5218146;28;20620;-59
2022/06/30 00:11:15;;;;;;;9.82;8.75;;;18.90;99.90;;;19.71;89.28;97614.97;5220169;28;20202;-59
2022/06/30 00:13:49;;;;;;;9.27;8.57;;;18.80;99.90;;;19.67;89.81;97613.19;5218493;28;20254;-58
2022/06/30 00:16:22;;;;;;;7.88;7.38;;;18.90;99.90;;;19.64;89.06;97612.22;5220536;28;20221;-60
2022/06/30 00:18:56;;;;;;;9.82;8.90;;;18.80;99.90;;;19.58;89.80;97610.41;5219909;28;20822;-60
2022/06/30 00:21:30;;;;;;;8.80;8.20;;;18.70;99.90;;;19.56;90.14;97606.91;5221537;28;20615;-58
2022/06/30 00:24:04;;;;;;;9.13;8.43;;;18.70;99.90;;;19.58;90.09;97607.81;5222440;28;20621;-61
2022/06/30 00:26:37;;;;;;;8.98;8.27;;;18.70;99.90;;;19.52;90.27;97607.72;5220153;28;20224;-60
2022/06/30 00:29:11;;;;;;;9.40;8.63;;;18.70;99.90;;;19.36;90.00;97604.81;5222868;28;20584;-60
2022/06/30 00:31:44;;;;;;;9.77;9.00;;;18.50;99.90;;;19.38;90.78;97596.22;5222958;28;20192;-59
2022/06/30 00:34:18;;;;;;;10.00;9.23;;;18.60;99.90;;;19.38;91.99;97588.44;5221802;28;20207;-59
2022/06/30 00:36:53;;;;;;;9.00;8.40;;;18.60;99.90;;;19.39;90.79;97592.78;5221010;28;20229;-61
2022/06/30 00:39:27;;;;;;;10.10;9.30;;;18.60;99.90;;;19.32;90.54;97591.78;5219362;28;20205;-61
2022/06/30 00:42:01;;;;;;;9.80;9.00;;;18.50;99.90;;;19.22;90.13;97592.47;5218711;28;20233;-60
2022/06/30 00:44:35;;;;;;;9.73;8.95;;;18.40;99.90;;;19.10;91.12;97590.50;5219253;28;20212;-60
2022/06/30 00:47:08;;;;;;;9.55;8.95;;;18.30;99.90;;;19.10;92.63;97586.19;5220361;28;20694;-61
2022/06/30 00:49:41;;;;;;;9.98;9.27;;;18.30;99.90;;;19.14;92.67;97581.94;5220560;28;20274;-61
2022/06/30 00:52:17;;;;;;;9.60;8.80;;;18.40;99.90;;;19.15;92.34;97583.72;5218025;28;20221;-60
2022/06/30 00:54:53;;;;;;;9.90;9.10;;;18.40;99.90;;;19.16;93.26;97582.84;5219856;28;20217;-59
2022/06/30 00:57:27;;;;;;;10.40;9.63;;;18.40;99.90;;;19.22;92.67;97585.56;5218368;28;20280;-57
2022/06/30 01:00:05;;;;;;;9.52;8.73;;;18.40;99.90;;;19.21;92.79;97581.22;5220075;28;20340;-58
2022/06/30 01:02:40;;;;;;;9.52;8.73;;;18.40;99.90;;;19.23;91.67;97576.94;5220511;28;20645;-60
2022/06/30 01:05:13;;;;;;;9.63;9.02;;;18.40;99.90;;;19.17;91.67;97576.81;5218134;28;20228;-60
2022/06/30 01:07:49;;;;;;;9.55;8.75;;;18.30;99.90;;;19.16;92.04;97571.63;5218340;28;20204;-59
2022/06/30 01:13:13;;;;;;;9.23;8.57;;;18.30;99.90;;;19.15;92.14;97578.53;5220694;28;20827;-58
2022/06/30 01:15:46;;;;;;;9.38;8.70;;;18.40;99.90;;;19.11;92.64;97574.09;5217759;28;20763;-59
2022/06/30 01:18:19;;;;;;;8.48;7.80;;;18.40;99.90;;;19.11;91.83;97566.34;5219822;28;20193;-58
2022/06/30 01:20:53;;;;;;;9.50;8.65;;;18.30;99.90;;;19.10;91.14;97564.59;5218783;28;20681;-59
2022/06/30 01:23:27;;;;;;;9.48;8.68;;;18.30;99.90;;;19.12;91.21;97568.97;5217999;28;20197;-61
2022/06/30 01:26:00;;;;;;;8.68;8.07;;;18.30;99.90;;;19.10;91.00;97569.78;5222680;28;20369;-62
2022/06/30 01:28:33;;;;;;;9.30;8.70;;;18.30;99.90;;;19.06;91.34;97568.00;5223558;28;20229;-61
2022/06/30 01:31:06;;;;;;;9.80;9.00;;;18.30;99.90;;;18.98;91.47;97572.16;5223089;28;20237;-62
2022/06/30 01:33:40;;;;;;;9.70;8.90;;;18.20;99.90;;;18.95;91.72;97569.50;5224023;28;20193;-60
2022/06/30 01:36:13;;;;;;;9.43;8.63;;;18.20;99.90;;;18.94;91.02;97562.56;5223971;28;20221;-57
2022/06/30 01:38:48;;;;;;;9.88;8.98;;;18.10;99.90;;;18.92;90.86;97559.94;5223024;28;20212;-60
2022/06/30 01:41:21;;;;;;;9.25;8.52;;;18.10;99.90;;;18.89;90.92;97555.59;5223777;28;20267;-58
2022/06/30 01:43:54;;;;;;;9.40;8.70;;;18.10;99.90;;;18.84;91.20;97546.84;5219806;28;20685;-58
2022/06/30 01:46:27;;;;;;;9.50;8.80;;;18.00;99.90;;;18.84;92.30;97557.22;5222741;28;21048;-60
2022/06/30 01:49:00;;;;;;;9.50;8.73;;;18.10;99.90;;;18.80;92.18;97558.00;5225053;28;20206;-60
2022/06/30 01:51:33;;;;;;;8.93;8.25;;;18.10;99.90;;;18.80;92.16;97564.88;5223137;28;20224;-60
2022/06/30 01:54:09;;;;;;;9.07;8.27;;;18.00;99.90;;;18.78;91.24;97551.91;5224829;28;20201;-56
2022/06/30 01:56:42;;;;;;;9.57;8.63;;;18.00;99.90;;;18.73;91.13;97550.91;5220683;28;20331;-56
2022/06/30 01:59:15;;;;;;;9.48;8.68;;;17.90;99.90;;;18.73;90.96;97545.72;5224487;28;20298;-59
2022/06/30 02:01:48;;;;;;;8.73;8.07;;;17.90;99.90;;;18.68;90.84;97539.56;5223106;28;20267;-60
2022/06/30 02:07:12;;;;;;;9.55;8.77;;;17.80;99.90;;;18.59;91.94;97540.28;5222238;28;20209;-60
2022/06/30 02:09:50;;;;;;;9.95;9.10;;;17.80;99.90;;;18.57;92.87;97535.91;5220349;28;20237;-60
2022/06/30 02:15:19;;;;;;;9.82;8.93;;;17.70;99.90;;;18.45;93.23;97527.03;5221532;28;20649;-57
2022/06/30 02:17:54;;;;;;;9.40;8.70;;;17.70;99.90;;;18.46;92.54;97533.13;5218641;28;20255;-55
2022/06/30 02:20:27;;;;;;;9.50;8.80;;;17.60;99.90;;;18.43;92.01;97528.75;5225022;28;20217;-58
2022/06/30 02:23:03;;;;;;;9.30;8.50;;;17.60;99.90;;;18.31;92.29;97528.47;5219475;28;20260;-58
2022/06/30 02:25:37;;;;;;;9.43;8.63;;;17.50;99.90;;;18.34;92.77;97536.31;5221515;28;20267;-56
2022/06/30 02:28:10;;;;;;;9.63;8.82;;;17.50;99.90;;;18.40;92.92;97533.84;5220442;28;20251;-62
2022/06/30 02:30:44;;;;;;;10.15;9.35;;;17.60;99.90;;;18.43;93.20;97533.06;5219345;28;20193;-61
2022/06/30 02:33:17;;;;;;;9.45;8.57;;;17.60;99.90;;;18.34;92.36;97528.56;5223203;28;20244;-62
2022/06/30 02:35:50;;;;;;;10.50;9.80;;;17.50;99.90;;;18.28;92.94;97523.22;5221241;28;20583;-61
2022/06/30 02:38:23;;;;;;;9.90;9.20;;;17.50;99.90;;;18.28;93.21;97518.06;5220458;28;20262;-62
2022/06/30 02:40:58;;;;;;;10.13;9.30;;;17.50;99.90;;;18.28;93.29;97525.81;5215016;28;20217;-60
2022/06/30 02:43:31;;;;;;;9.50;8.82;;;17.50;99.90;;;18.27;93.17;97531.84;5221660;28;20197;-59
2022/06/30 02:46:04;;;;;;;8.75;8.05;;;17.50;99.90;;;18.28;92.63;97528.41;5219471;28;20316;-57
2022/06/30 02:48:37;;;;;;;9.65;9.00;;;17.50;99.90;;;18.29;93.03;97543.09;5223284;28;20235;-58
2022/06/30 02:51:11;;;;;;;10.70;9.80;;;17.50;99.90;;;18.29;93.79;97540.53;5219315;28;20610;-59
2022/06/30 02:53:44;;;;;;;9.48;8.82;;;17.50;99.90;;;18.25;93.88;97536.09;5221565;28;20198;-59
2022/06/30 02:56:18;;;;;;;10.38;9.55;;;17.50;99.90;;;18.24;93.32;97544.72;5221032;28;20217;-59
2022/06/30 02:58:52;;;;;;;10.75;9.95;;;17.50;99.90;;;18.19;93.61;97536.84;5220271;28;20715;-58
2022/06/30 03:01:25;;;;;;;9.73;8.95;;;17.40;99.90;;;18.18;93.52;97552.34;5219922;28;20217;-56
2022/06/30 03:04:01;;;;;;;9.63;9.00;;;17.40;99.90;;;18.17;93.38;97548.00;5223367;28;20262;-56
2022/06/30 03:06:35;;;;;;;9.55;8.75;;;17.40;99.90;;;18.16;93.16;97556.59;5218815;28;20275;-56
2022/06/30 03:09:08;;;;;;;9.50;8.60;;;17.40;99.90;;;18.12;93.79;97554.81;5215886;28;20627;-59
2022/06/30 03:11:43;;;;;;;9.15;8.55;;;17.40;99.90;;;18.13;93.37;97553.94;5214280;28;20229;-57
2022/06/30 03:14:24;;;;;;;10.40;8.68;;;17.40;99.90;;;18.12;92.26;97553.09;5222145;28;20209;-56
2022/06/30 03:16:57;;;;;;;9.90;9.15;;;17.30;99.90;;;18.11;92.38;97555.63;5220395;28;20259;-58
2022/06/30 03:19:30;;;;;;;9.88;9.07;;;17.30;99.90;;;18.07;92.97;97554.69;5216450;28;20675;-57
2022/06/30 03:22:04;;;;;;;9.95;9.15;;;17.30;99.90;;;17.99;94.47;97562.25;5219389;28;20267;-57
2022/06/30 03:24:37;;;;;;;10.73;9.55;;;17.30;99.90;;;17.99;93.39;97556.22;5216230;28;20213;-58
2022/06/30 03:27:12;;;;;;;10.10;9.30;;;17.20;99.90;;;17.96;92.90;97557.00;5218829;28;20198;-59
2022/06/30 03:29:45;;;;;;;9.93;9.15;;;17.20;99.90;;;17.93;92.32;97559.53;5218117;28;20556;-57
2022/06/30 03:32:18;;;;;;;10.15;9.45;;;17.10;99.90;;;17.88;92.56;97552.50;5215391;28;20278;-57
2022/06/30 03:34:51;;;;;;;8.90;8.30;;;17.10;99.90;;;17.90;92.62;97556.88;5217555;28;20271;-56
2022/06/30 03:37:24;;;;;;;9.65;8.95;;;17.10;99.90;;;17.88;93.37;97553.38;5216354;28;20230;-57
2022/06/30 03:39:58;;;;;;;10.10;9.30;;;17.10;99.90;;;17.91;93.47;97552.56;5217132;28;20220;-58
2022/06/30 03:42:32;;;;;;;10.70;9.80;;;17.10;99.90;;;17.90;93.50;97556.88;5216490;28;20221;-58
2022/06/30 03:45:07;;;;;;;9.88;9.07;;;17.20;99.90;;;17.93;93.24;97559.53;5220146;28;20275;-61
2022/06/30 03:47:40;;;;;;;9.45;8.75;;;17.10;99.90;;;17.91;93.68;97571.56;5220140;28;20200;-60
2022/06/30 03:50:14;;;;;;;10.10;9.13;;;17.10;99.90;;;17.95;93.71;97559.59;5216223;28;20205;-57
2022/06/30 03:52:47;;;;;;;10.07;9.18;;;17.20;99.90;;;17.93;93.33;97562.13;5216797;28;20197;-55
2022/06/30 03:55:20;;;;;;;10.27;9.57;;;17.20;99.90;;;17.89;93.30;97557.72;5222079;28;20233;-54
2022/06/30 03:57:55;;;;;;;9.50;8.80;;;17.10;99.90;;;17.85;93.24;97553.31;5219824;28;20252;-60
2022/06/30 04:00:28;;;;;;;9.93;9.13;;;17.00;99.90;;;17.85;93.15;97555.88;5219599;28;20225;-60
2022/06/30 04:03:02;;;;;;;11.18;10.18;;;17.00;99.90;;;17.79;93.11;97548.00;5216798;28;20790;-60
2022/06/30 04:05:35;;;;;;;10.45;9.57;;;17.00;99.90;;;17.79;92.53;97553.16;5217906;28;20794;-60
2022/06/30 04:08:08;;;;;;;10.55;9.75;;;17.00;99.90;;;17.83;93.50;97557.59;5218215;28;20194;-60
2022/06/30 04:10:42;;;;;;;10.88;10.07;;;17.00;99.90;;;17.85;94.01;97550.72;5219216;28;20197;-60
2022/06/30 04:13:16;;;;;;;10.77;9.77;;;17.10;99.90;;;17.82;94.59;97545.47;5219840;28;20233;-60
2022/06/30 04:15:49;;;;;;;9.98;9.27;;;17.10;99.90;;;17.89;93.65;97549.97;5217899;28;20212;-59
2022/06/30 04:18:23;;;;;;;9.82;9.13;;;17.10;99.90;;;17.90;93.78;97550.84;5221717;28;20568;-59
2022/06/30 04:20:56;;;;;;;11.30;10.23;;;17.10;99.90;;;17.93;93.74;97546.59;5213989;28;20220;-60
2022/06/30 04:23:29;;;;;;;10.77;9.82;;;17.10;99.90;;;17.92;94.36;97542.28;5222461;28;20214;-59
2022/06/30 04:26:03;;;;;;;10.40;9.55;;;17.20;99.90;;;17.97;93.34;97543.28;5214376;28;20272;-60
2022/06/30 04:28:38;;;;;;;10.10;9.40;;;17.20;99.90;;;18.00;93.36;97543.34;5220233;28;20319;-60
2022/06/30 04:34:02;;;;;;;10.10;9.40;;;17.30;99.90;;;18.11;94.19;97555.63;5214933;28;20244;-58
2022/06/30 04:36:35;;;;;;;10.27;9.57;;;17.40;99.90;;;18.19;93.65;97554.94;5216382;28;20217;-59
2022/06/30 04:39:08;;;;;;;10.48;9.77;;;17.40;99.90;;;18.26;94.39;97555.97;5218238;28;20236;-59
2022/06/30 04:41:40;;;;;;;10.68;9.90;;;17.50;99.90;;;18.31;94.12;97554.34;5218458;28;20732;-60
2022/06/30 04:44:15;;;;;;;11.23;10.35;;;17.60;99.90;;;18.42;93.55;97557.16;5220250;28;20282;-60
2022/06/30 04:46:48;;;;;;;10.60;9.85;;;17.70;99.90;;;18.70;92.09;97553.44;5214001;28;20247;-59
2022/06/30 04:49:22;;;;;;;10.52;9.73;;;18.00;99.90;;;19.24;90.20;97563.13;5212318;28;20200;-61
2022/06/30 04:51:55;;;;;;;9.77;9.07;;;18.50;99.90;;;19.95;87.52;97547.06;5208627;28;20221;-60
2022/06/30 04:54:28;;;;;;;10.77;9.80;;;19.20;99.90;;;20.57;82.64;97543.59;5218875;28;20240;-61
2022/06/30 04:57:01;;;;;;;9.23;8.52;;;19.80;99.90;;;21.05;79.63;97537.22;5216251;28;20222;-61
2022/06/30 04:59:36;;;;;;;9.85;9.02;;;20.20;99.90;;;21.69;76.23;97538.69;5219011;28;20267;-61
2022/06/30 05:02:09;;;;;;;9.63;8.88;;;20.80;99.90;;;22.07;74.51;97532.94;5216965;28;20212;-61
2022/06/30 05:04:44;;;;;;;8.85;8.10;;;21.20;99.90;;;22.35;74.50;97534.84;5217638;28;20233;-61
2022/06/30 05:07:17;;;;;;;9.18;8.45;;;21.30;99.90;;;22.82;71.68;97534.19;5214829;28;20201;-61
2022/06/30 05:09:50;;;;;;;8.82;8.20;;;21.70;99.90;;;23.31;69.77;97533.44;5217522;28;20229;-60
2022/06/30 05:12:23;;;;;;;9.27;8.63;;;22.00;99.90;;;23.69;68.77;97524.75;5218875;28;20202;-61
2022/06/30 05:14:59;;;;;;;9.05;8.38;;;22.30;99.90;;;23.88;67.07;97525.66;5215529;28;20217;-61
2022/06/30 05:17:34;;;;;;;8.98;8.20;;;22.50;99.90;;;24.05;66.38;97522.16;5209736;28;20193;-61
2022/06/30 05:20:09;;;;;;;9.32;8.55;;;22.70;99.90;;;24.16;66.03;97516.91;5208048;28;20606;-62
2022/06/30 05:22:42;;;;;;;8.50;7.70;;;22.80;99.90;;;23.83;67.00;97523.91;5215699;28;20331;-59
2022/06/30 05:28:07;;;;;;;8.82;8.13;;;23.00;99.90;;;24.59;64.31;97527.25;5214371;28;20776;-61
2022/06/30 05:30:42;;;;;;;8.05;7.45;;;23.10;99.90;;;24.93;63.15;97529.72;5214798;28;20254;-61
2022/06/30 05:33:19;;;;;;;8.60;8.00;;;23.50;99.90;;;24.61;65.13;97535.97;5216606;28;20204;-60
2022/06/30 05:35:54;;;;;;;8.98;8.07;;;23.40;99.90;;;25.08;63.14;97532.25;5212170;28;20648;-61
2022/06/30 05:38:27;;;;;;;8.70;8.07;;;23.50;99.90;;;25.43;61.74;97530.31;5214358;28;20197;-61
2022/06/30 05:41:00;;;;;;;8.48;7.78;;;23.80;99.90;;;25.62;61.44;97527.53;5209612;28;20289;-59
2022/06/30 05:43:33;;;;;;;8.82;8.13;;;23.90;99.90;;;25.89;60.38;97522.09;5219555;28;20232;-61
2022/06/30 05:46:08;;;;;;;8.95;8.25;;;24.30;99.90;;;26.22;59.43;97520.91;5217123;28;20229;-61
2022/06/30 05:48:41;;;;;;;8.88;8.00;;;24.40;99.90;;;26.38;58.98;97516.34;5214676;28;20204;-60
2022/06/30 05:51:18;;;;;;;8.88;8.07;;;24.60;99.90;;;26.18;60.08;97519.19;5217950;28;20200;-59
2022/06/30 05:53:51;;;;;;;8.68;8.00;;;24.60;99.90;;;26.32;59.73;97519.91;5217216;28;20196;-60
2022/06/30 05:56:24;;;;;;;8.93;8.23;;;24.70;99.90;;;26.76;57.92;97523.81;5215042;28;20286;-60
2022/06/30 05:58:57;;;;;;;7.82;7.22;;;25.00;99.90;;;27.02;56.83;97515.59;5221419;28;20250;-61
2022/06/30 06:01:32;;;;;;;8.65;7.95;;;25.00;99.90;;;27.20;56.39;97521.50;5218127;28;20198;-60
2022/06/30 06:04:05;;;;;;;7.90;7.40;;;25.10;99.90;;;27.62;55.36;97518.19;5219425;28;20267;-61
2022/06/30 06:06:39;;;;;;;8.18;7.45;;;25.40;99.90;;;27.74;54.29;97511.00;5214341;28;20225;-61
2022/06/30 06:09:12;;;;;;;7.68;6.97;;;25.40;99.90;;;27.96;54.84;97514.16;5220494;28;20193;-61
2022/06/30 06:11:45;;;;;;;7.95;7.35;;;25.60;99.90;;;28.12;53.27;97523.50;5220700;28;20193;-62
2022/06/30 06:14:19;;;;;;;7.55;6.95;;;25.60;99.90;;;28.38;52.78;97524.75;5221706;28;20642;-61
2022/06/30 06:16:54;;;;;;;7.70;7.18;;;25.80;99.90;;;28.27;52.96;97520.59;5220265;28;20197;-61
2022/06/30 06:19:27;;;;;;;7.15;6.65;;;25.90;99.90;;;27.88;54.84;97521.31;5219159;28;20204;-61
2022/06/30 06:22:00;;;;;;;7.93;7.32;;;25.80;99.90;;;28.25;52.84;97516.25;5223790;28;20228;-62
2022/06/30 06:24:34;;;;;;;6.82;6.20;;;26.00;99.90;;;28.78;52.49;97519.59;5220065;28;20251;-61
2022/06/30 06:27:08;;;;;;;7.80;7.18;;;26.30;99.90;;;28.83;51.59;97524.75;5218144;28;20243;-61
2022/06/30 06:29:41;;;;;;;7.75;7.07;;;26.50;99.90;;;29.23;51.67;97516.03;5220919;28;20224;-62
2022/06/30 06:32:15;;;;;;;7.65;7.05;;;26.60;99.90;;;29.55;50.42;97518.75;5220204;28;20250;-62
2022/06/30 06:34:49;;;;;;;7.03;6.55;;;27.00;99.90;;;29.50;50.85;97510.06;5215185;28;20255;-61
2022/06/30 06:37:22;;;;;;;6.93;6.43;;;27.00;99.90;;;30.12;48.18;97509.44;5219088;28;20263;-62
2022/06/30 06:39:55;;;;;;;8.45;6.60;;;27.50;98.70;;;30.59;47.87;97514.31;5218590;28;20259;-63
2022/06/30 06:42:28;;;;;;;7.00;6.50;;;27.90;98.60;;;30.98;47.07;97518.47;5219630;28;20230;-62
2022/06/30 06:45:01;;;;;;;7.00;6.47;;;28.20;97.90;;;31.13;46.26;97513.63;5219560;28;20218;-62
2022/06/30 06:47:35;;;;;;;7.25;6.72;;;28.20;97.50;;;31.38;46.34;97511.13;5223768;28;20289;-62
2022/06/30 06:50:10;;;;;;;6.95;6.35;;;28.30;97.70;;;31.34;44.48;97504.19;5221246;28;20200;-62
2022/06/30 06:52:43;;;;;;;6.65;6.05;;;28.60;96.10;;;31.49;45.49;97494.91;5222038;28;20567;-62
2022/06/30 06:55:17;;;;;;;6.60;6.10;;;28.70;96.60;;;31.92;44.21;97498.81;5218029;28;20220;-62
2022/06/30 06:57:50;;;;;;;6.95;6.28;;;29.10;96.00;;;32.15;44.02;97498.84;5219539;28;20676;-60
2022/06/30 07:00:23;;;;;;;6.90;6.18;;;29.40;95.50;;;31.96;43.99;97488.03;5216566;28;20232;-60
2022/06/30 07:02:57;;;;;;;7.05;6.45;;;29.60;94.90;;;32.05;44.00;97490.41;5219668;28;20250;-62
2022/06/30 07:05:31;;;;;;;6.70;6.10;;;29.60;95.10;;;32.04;42.68;97491.28;5221360;28;20773;-62
2022/06/30 07:08:04;;;;;;;6.45;5.93;;;30.00;93.70;;;32.49;41.67;97487.09;5221985;28;20251;-63
2022/06/30 07:10:37;;;;;;;6.50;5.90;;;30.00;93.20;;;32.49;41.77;97489.75;5221010;28;20251;-61
2022/06/30 07:13:10;;;;;;;6.03;5.47;;;30.40;92.80;;;32.46;41.24;97487.22;5222265;28;20197;-62
2022/06/30 07:15:43;;;;;;;7.07;6.47;;;30.10;92.50;;;32.50;42.59;97488.81;5219566;28;20221;-61
2022/06/30 07:18:18;;;;;;;7.10;5.85;;;30.20;92.90;;;32.93;42.06;97492.47;5222098;28;20247;-62
2022/06/30 07:20:51;;;;;;;6.35;5.85;;;30.60;92.70;;;33.26;41.31;97487.69;5218895;28;20662;-60
2022/06/30 07:23:24;;;;;;;6.80;5.60;;;31.00;92.00;;;33.64;41.48;97486.13;5220942;28;20274;-60
2022/06/30 07:26:02;;;;;;;6.60;6.07;;;31.30;92.80;;;33.66;40.86;97482.56;5219578;28;20216;-63
2022/06/30 07:28:36;;;;;;;5.93;5.53;;;31.30;92.00;;;33.77;40.64;97470.59;5219688;28;20610;-60
2022/06/30 07:31:26;;;;;;;6.35;5.75;;;31.50;92.10;;;33.75;40.72;97487.50;5214585;28;20196;-61
2022/06/30 07:34:01;;;;;;;6.97;6.38;;;31.80;91.50;;;33.84;40.30;97481.78;5214864;28;20196;-62
2022/06/30 07:36:35;;;;;;;6.68;6.15;;;31.70;90.90;;;33.95;40.16;97484.84;5218809;28;20239;-62
2022/06/30 07:39:08;;;;;;;6.13;5.63;;;31.70;91.30;;;33.97;40.26;97477.69;5216162;28;20205;-60
2022/06/30 07:41:41;;;;;;;6.32;5.80;;;31.80;91.10;;;34.14;38.91;97476.09;5223171;28;20242;-61
2022/06/30 07:44:14;;;;;;;6.53;6.00;;;31.80;90.40;;;34.04;39.46;97473.88;5222725;28;20216;-62
2022/06/30 07:46:47;;;;;;;6.13;5.53;;;31.80;90.80;;;34.38;39.65;97479.47;5223144;28;20196;-60
2022/06/30 07:49:22;;;;;;;6.32;5.78;;;31.80;91.10;;;34.34;39.63;97485.84;5220976;28;20247;-62
2022/06/30 07:51:55;;;;;;;6.30;5.70;;;32.10;90.60;;;34.63;37.98;97480.13;5216529;28;20242;-59
2022/06/30 07:54:28;;;;;;;6.15;5.65;;;32.20;89.40;;;34.53;38.32;97482.28;5222584;28;20254;-61
2022/06/30 07:57:01;;;;;;;6.90;5.88;;;32.30;89.50;;;34.65;37.36;97480.03;5218247;28;20197;-60
2022/06/30 07:59:55;;;;;;;6.45;5.78;;;32.10;88.50;;;35.15;37.58;97467.06;5217008;28;20298;-59
2022/06/30 08:02:28;;;;;;;6.03;5.50;;;32.30;90.00;;;35.41;36.17;97468.44;5220982;28;20201;-59
2022/06/30 08:05:03;;;;;;;6.18;5.68;;;32.60;87.10;;;35.71;36.49;97467.88;5217804;28;20225;-59
2022/06/30 08:07:37;;;;;;;6.28;5.63;;;32.80;87.90;;;35.65;35.90;97478.81;5223482;28;20193;-61
2022/06/30 08:10:11;;;;;;;5.78;5.35;;;32.80;86.70;;;36.12;34.53;97472.91;5218490;28;20216;-61
2022/06/30 08:12:44;;;;;;;5.93;5.45;;;32.90;85.20;;;36.30;33.51;97469.28;5217931;28;20613;-61
2022/06/30 08:15:17;;;;;;;5.43;5.03;;;33.10;84.60;;;36.37;32.97;97474.28;5220386;28;20270;-59
2022/06/30 08:17:50;;;;;;;5.72;5.15;;;33.10;83.70;;;36.04;33.46;97477.75;5219266;28;20201;-60
2022/06/30 08:20:25;;;;;;;5.75;5.25;;;33.00;82.60;;;36.54;33.40;97468.94;5215274;28;20197;-60
2022/06/30 08:22:58;;;;;;;5.63;5.22;;;33.40;83.60;;;36.24;32.39;97472.25;5220523;28;20208;-61
2022/06/30 08:25:31;;;;;;;5.55;5.00;;;33.70;80.30;;;36.06;33.69;97468.78;5218191;28;20231;-60
2022/06/30 08:28:05;;;;;;;5.05;4.55;;;33.60;80.70;;;35.84;33.35;97468.97;5219148;28;20209;-61
2022/06/30 08:30:38;;;;;;;5.30;4.90;;;33.70;80.00;;;35.59;34.48;97468.50;5219737;28;20294;-59
2022/06/30 08:33:11;;;;;;;6.40;4.80;;;33.60;80.00;;;35.17;36.25;97459.88;5220438;28;20628;-62
2022/06/30 08:35:46;;;;;;;5.93;5.35;;;33.40;82.70;;;34.88;36.28;97460.38;5219187;28;20271;-61
2022/06/30 08:38:35;;;;;;;5.38;4.88;;;33.30;82.20;;;34.93;35.96;97456.56;5217766;28;20204;-63
2022/06/30 08:44:00;;;;;;;5.28;4.93;;;33.30;83.00;;;35.06;34.51;97443.59;5215234;28;20224;-61
2022/06/30 08:46:34;;;;;;;6.35;4.68;;;33.50;78.40;;;35.19;34.81;97438.53;5219299;28;20638;-60
2022/06/30 08:49:07;;;;;;;5.00;4.47;;;33.60;78.00;;;35.02;34.44;97441.97;5223131;28;20196;-59
2022/06/30 08:51:46;;;;;;;5.80;5.20;;;33.50;79.10;;;35.10;34.61;97434.53;5218327;28;20271;-63
2022/06/30 08:54:23;;;;;;;4.53;4.13;;;33.50;78.30;;;34.80;33.48;97439.50;5219322;28;20275;-61
2022/06/30 08:57:01;;;;;;;4.43;4.03;;;33.40;76.10;;;34.63;34.95;97429.66;5217054;28;20203;-62
2022/06/30 08:59:39;;;;;;;5.25;4.75;;;33.30;77.90;;;34.37;35.53;97432.63;5217230;28;20532;-60
2022/06/30 09:02:12;;;;;;;5.13;4.72;;;33.40;78.00;;;34.26;35.90;97431.31;5213949;28;20201;-65
2022/06/30 09:04:46;;;;;;;5.05;4.57;;;33.30;79.30;;;34.51;36.14;97424.88;5215403;28;20229;-64
2022/06/30 09:07:20;;;;;;;6.43;4.57;;;33.30;79.70;;;34.52;35.68;97416.84;5218527;28;20243;-61
2022/06/30 09:09:54;;;;;;;4.72;4.38;;;33.50;78.70;;;34.47;34.71;97426.81;5221933;28;20486;-58
2022/06/30 09:12:27;;;;;;;5.65;4.50;;;33.30;76.90;;;34.50;34.88;97426.69;5209577;28;20251;-61
2022/06/30 09:15:01;;;;;;;5.20;4.70;;;33.40;77.70;;;34.32;35.54;97432.84;5208325;28;20222;-60
2022/06/30 09:17:34;;;;;;;5.53;4.68;;;32.90;78.90;;;33.92;36.03;97434.59;5217201;28;20201;-60
2022/06/30 09:20:13;;;;;;;4.78;4.47;;;32.40;79.70;;;33.31;36.61;97421.22;5215556;28;20197;-64
2022/06/30 09:22:48;;;;;;;4.80;4.50;;;31.80;80.70;;;33.11;37.65;97419.41;5211308;28;20206;-61
2022/06/30 09:25:24;;;;;;;5.18;4.65;;;31.60;83.40;;;33.20;38.47;97419.91;5211527;28;20632;-63
2022/06/30 09:27:57;;;;;;;4.65;4.32;;;31.70;83.50;;;32.99;36.73;97418.09;5213960;28;20635;-60
2022/06/30 09:30:30;;;;;;;4.97;4.50;;;31.90;80.40;;;33.21;37.87;97418.09;5221423;28;20230;-61
2022/06/30 09:33:08;;;;;;;4.93;4.45;;;32.10;81.10;;;33.13;37.13;97415.75;5222692;28;20208;-62
2022/06/30 09:35:41;;;;;;;4.65;4.28;;;31.70;80.10;;;33.26;36.56;97416.16;5221671;28;20243;-60
2022/06/30 09:38:16;;;;;;;4.85;4.38;;;32.00;78.50;;;33.09;36.13;97408.88;5221653;28;20200;-61
2022/06/30 09:41:01;;;;;;;6.63;4.43;;;32.00;78.50;;;33.44;35.09;97411.84;5222220;28;20196;-61
2022/06/30 09:43:39;;;;;;;4.55;4.15;;;32.40;76.80;;;33.43;35.41;97412.78;5216566;28;20243;-61
2022/06/30 09:46:12;;;;;;;4.35;3.90;;;32.60;75.90;;;33.35;35.88;97401.66;5220063;28;20224;-60
2022/06/30 09:48:45;;;;;;;5.20;4.50;;;32.40;78.00;;;33.53;35.73;97403.53;5224971;28;20615;-59
2022/06/30 09:51:18;;;;;;;5.07;4.57;;;32.50;77.30;;;33.89;35.39;97402.88;5223531;28;20613;-58
2022/06/30 09:54:11;;;;;;;4.97;4.50;;;32.90;76.70;;;33.77;35.57;97406.94;5225931;28;20654;-59
2022/06/30 09:57:00;;;;;;;5.68;4.30;;;32.60;77.60;;;33.84;34.67;97405.72;5221774;28;20235;-60
2022/06/30 09:59:34;;;;;;;4.95;4.45;;;32.90;75.30;;;33.83;35.36;97411.13;5222676;28;20246;-62
2022/06/30 10:02:11;;;;;;;4.70;4.30;;;32.80;75.90;;;33.25;35.65;97395.84;5220860;28;20200;-60
2022/06/30 10:04:55;;;;;;;5.50;4.28;;;32.40;77.00;;;32.81;37.12;97403.78;5219379;28;20282;-60
2022/06/30 10:07:29;;;;;;;4.93;4.40;;;31.80;78.00;;;32.88;36.67;97388.50;5221434;28;20196;-61
2022/06/30 10:10:07;;;;;;;6.82;4.78;;;31.70;77.90;;;32.73;36.78;97384.69;5219315;28;20196;-61
2022/06/30 10:12:43;;;;;;;4.95;4.50;;;31.60;77.60;;;32.16;37.03;97388.63;5215443;28;20800;-62
2022/06/30 10:15:17;;;;;;;5.25;4.20;;;31.10;78.20;;;32.36;37.17;97390.50;5223292;28;20212;-62
2022/06/30 10:17:54;;;;;;;5.20;4.60;;;31.30;77.90;;;32.31;37.90;97383.63;5217431;28;20196;-60
2022/06/30 10:20:28;;;;;;;4.80;4.32;;;31.50;78.00;;;32.10;37.28;97384.41;5212624;28;20197;-60
2022/06/30 10:23:02;;;;;;;4.90;4.50;;;31.20;78.50;;;32.11;37.16;97391.44;5216907;28;20219;-62
2022/06/30 10:25:42;;;;;;;5.20;4.65;;;31.30;77.00;;;31.70;37.14;97383.19;5215636;28;20231;-58
2022/06/30 10:28:16;;;;;;;4.90;4.47;;;30.90;77.40;;;31.90;38.34;97371.03;5219867;28;20196;-62
2022/06/30 10:31:00;;;;;;;5.50;5.00;;;31.10;80.20;;;31.91;37.43;97383.34;5222107;28;21823;-60
2022/06/30 10:33:44;;;;;;;5.05;4.60;;;31.00;78.00;;;31.76;37.58;97380.31;5214800;28;20197;-60
2022/06/30 10:36:27;;;;;;;4.68;4.28;;;31.00;78.00;;;31.66;37.21;97378.94;5220824;28;20274;-62
2022/06/30 10:39:05;;;;;;;4.82;4.40;;;30.90;76.70;;;31.99;37.76;97382.19;5212914;28;20201;-58
2022/06/30 10:41:47;;;;;;;5.10;4.70;;;31.20;77.80;;;31.90;36.71;97378.97;5216301;28;20247;-59
2022/06/30 10:44:22;;;;;;;4.45;4.05;;;31.20;75.80;;;31.72;36.21;97376.06;5215974;28;20193;-61
2022/06/30 10:47:10;;;;;;;5.68;4.13;;;30.90;75.70;;;31.99;36.15;97370.72;5215763;28;20621;-61
2022/06/30 10:49:58;;;;;;;5.32;4.38;;;31.10;76.00;;;32.08;36.30;97375.69;5218570;28;20200;-58
2022/06/30 10:52:32;;;;;;;6.95;5.85;;;31.20;76.20;;;32.12;36.39;97371.16;5211376;28;20248;-60
2022/06/30 10:55:07;;;;;;;9.15;8.32;;;31.40;75.70;;;32.14;35.90;97364.88;5219677;28;20266;-61
2022/06/30 10:58:02;;;;;;;5.97;5.43;;;31.20;76.30;;;32.19;36.04;97373.47;5214523;28;20197;-61
2022/06/30 11:00:59;;;;;;;4.88;4.47;;;31.20;74.80;;;31.93;35.57;97365.66;5215891;28;20598;-60
2022/06/30 11:04:04;;;;;;;5.20;4.70;;;31.10;74.20;;;32.24;35.31;97366.25;5221346;28;20625;-60
2022/06/30 11:07:01;;;;;;;4.72;4.20;;;31.20;74.20;;;31.96;36.64;97368.19;5213615;28;20258;-63